sensor_id;sensor_type;location;lat;lon;timestamp;P1;P2;P0
74434;PMS7003;62867;52.038;29.256;2023-02-21T00:01:50;11.8;9.6;5.4
74434;PMS7003;62867;52.038;29.256;2023-02-21T00:06:12;12;7.4;4.2
74434;PMS7003;62867;52.038;29.256;2023-02-21T00:12:02;8.8;7.6;4
74434;PMS7003;62867;52.038;29.256;2023-02-21T00:17:04;9.4;6.2;3.4
74434;PMS7003;62867;52.038;29.256;2023-02-21T00:21:12;7.2;5.6;2.6
74434;PMS7003;62867;52.038;29.256;2023-02-21T00:26:50;8.8;6.6;3.6
74434;PMS7003;62867;52.038;29.256;2023-02-21T00:31:34;9.4;5.2;2.8
74434;PMS7003;62867;52.038;29.256;2023-02-21T00:37:04;6.4;5.2;2.4
74434;PMS7003;62867;52.038;29.256;2023-02-21T00:41:12;3.8;2.8;2
74434;PMS7003;62867;52.038;29.256;2023-02-21T00:46:24;6.3;3.5;2
74434;PMS7003;62867;52.038;29.256;2023-02-21T00:51:52;5.2;2.2;0.8
74434;PMS7003;62867;52.038;29.256;2023-02-21T00:56:12;4.2;3.2;2
74434;PMS7003;62867;52.038;29.256;2023-02-21T01:02:02;2.8;2.6;1.6
74434;PMS7003;62867;52.038;29.256;2023-02-21T01:06:24;4.8;4.4;1.6
74434;PMS7003;62867;52.038;29.256;2023-02-21T01:11:24;3.6;2.8;1.4
74434;PMS7003;62867;52.038;29.256;2023-02-21T01:16:48;4.6;2.8;1.8
74434;PMS7003;62867;52.038;29.256;2023-02-21T01:21:34;5.2;2.4;1.6
74434;PMS7003;62867;52.038;29.256;2023-02-21T01:27:04;4.2;2.8;1.4
74434;PMS7003;62867;52.038;29.256;2023-02-21T01:31:15;3.8;2.2;0.8
74434;PMS7003;62867;52.038;29.256;2023-02-21T01:36:22;4;1.8;1
74434;PMS7003;62867;52.038;29.256;2023-02-21T01:41:50;4;2.4;0.6
74434;PMS7003;62867;52.038;29.256;2023-02-21T01:46:12;2.8;2;0.8
74434;PMS7003;62867;52.038;29.256;2023-02-21T01:52:06;3.6;2.4;0.8
74434;PMS7003;62867;52.038;29.256;2023-02-21T01:56:12;3;2.2;1.2
74434;PMS7003;62867;52.038;29.256;2023-02-21T02:01:28;3.8;2.4;1.2
74434;PMS7003;62867;52.038;29.256;2023-02-21T02:06:52;4.2;2.8;1
74434;PMS7003;62867;52.038;29.256;2023-02-21T02:11:43;5.2;3;1
74434;PMS7003;62867;52.038;29.256;2023-02-21T02:17:05;3.4;2;1.2
74434;PMS7003;62867;52.038;29.256;2023-02-21T02:22:15;4.4;2.2;0.8
74434;PMS7003;62867;52.038;29.256;2023-02-21T02:26:39;3.4;2.6;0.8
74434;PMS7003;62867;52.038;29.256;2023-02-21T02:31:56;5.2;2;1.2
74434;PMS7003;62867;52.038;29.256;2023-02-21T02:36:13;4;2.4;0.6
74434;PMS7003;62867;52.038;29.256;2023-02-21T02:42:03;6;2.6;1.4
74434;PMS7003;62867;52.038;29.256;2023-02-21T02:46:23;6.8;3.8;1.3
74434;PMS7003;62867;52.038;29.256;2023-02-21T02:51:24;3.6;2;1.2
74434;PMS7003;62867;52.038;29.256;2023-02-21T02:56:50;4.2;2;1.2
74434;PMS7003;62867;52.038;29.256;2023-02-21T03:01:28;4.6;2.4;1.6
74434;PMS7003;62867;52.038;29.256;2023-02-21T03:06:53;5.4;2.6;0.6
74434;PMS7003;62867;52.038;29.256;2023-02-21T03:11:36;3.8;2.6;1
74434;PMS7003;62867;52.038;29.256;2023-02-21T03:16:13;4.4;3;1.4
74434;PMS7003;62867;52.038;29.256;2023-02-21T03:21:53;3.8;2.4;1
74434;PMS7003;62867;52.038;29.256;2023-02-21T03:26:22;6.2;3.8;1.6
74434;PMS7003;62867;52.038;29.256;2023-02-21T03:32:05;7.8;5.2;2.2
74434;PMS7003;62867;52.038;29.256;2023-02-21T03:36:38;9.4;5.2;2.4
74434;PMS7003;62867;52.038;29.256;2023-02-21T03:41:12;7.2;4.8;2.2
74434;PMS7003;62867;52.038;29.256;2023-02-21T03:46:52;7.4;4.2;2
74434;PMS7003;62867;52.038;29.256;2023-02-21T03:51:24;6.8;3.5;1.8
74434;PMS7003;62867;52.038;29.256;2023-02-21T03:57:06;6.4;4;1.8
74434;PMS7003;62867;52.038;29.256;2023-02-21T04:01:26;7;4.8;2
74434;PMS7003;62867;52.038;29.256;2023-02-21T04:06:12;7.8;5.2;2.6
74434;PMS7003;62867;52.038;29.256;2023-02-21T04:11:50;10;7.6;3.8
74434;PMS7003;62867;52.038;29.256;2023-02-21T04:16:22;7.4;4.6;2.2
74434;PMS7003;62867;52.038;29.256;2023-02-21T04:22:02;6.4;3.2;1.4
74434;PMS7003;62867;52.038;29.256;2023-02-21T04:26:12;6.4;3.8;1.4
74434;PMS7003;62867;52.038;29.256;2023-02-21T04:31:13;5.6;3.4;1.6
74434;PMS7003;62867;52.038;29.256;2023-02-21T04:36:50;6.8;3.2;1.4
74434;PMS7003;62867;52.038;29.256;2023-02-21T04:41:34;4.6;3;1.2
74434;PMS7003;62867;52.038;29.256;2023-02-21T04:47:04;7.2;4.2;2.2
74434;PMS7003;62867;52.038;29.256;2023-02-21T04:51:12;10.8;6.5;3.3
74434;PMS7003;62867;52.038;29.256;2023-02-21T04:56:12;12.8;8.2;4.8
74434;PMS7003;62867;52.038;29.256;2023-02-21T05:02:02;8.8;6.2;3
74434;PMS7003;62867;52.038;29.256;2023-02-21T05:06:23;6.4;3.8;1.8
74434;PMS7003;62867;52.038;29.256;2023-02-21T05:11:52;6;3.6;2
74434;PMS7003;62867;52.038;29.256;2023-02-21T05:16:22;8.8;5.2;2
74434;PMS7003;62867;52.038;29.256;2023-02-21T05:21:36;9.6;6;2.6
74434;PMS7003;62867;52.038;29.256;2023-02-21T05:26:12;9.2;5.8;3
74434;PMS7003;62867;52.038;29.256;2023-02-21T05:31:34;10;6.2;3.2
74434;PMS7003;62867;52.038;29.256;2023-02-21T05:37:00;9.2;4.6;2.8
74434;PMS7003;62867;52.038;29.256;2023-02-21T05:41:12;8.6;5.8;2.4
74434;PMS7003;62867;52.038;29.256;2023-02-21T05:46:34;8;4.2;2.4
74434;PMS7003;62867;52.038;29.256;2023-02-21T05:51:35;9;6.3;2.8
74434;PMS7003;62867;52.038;29.256;2023-02-21T05:56:12;11.2;7.4;3.4
74434;PMS7003;62867;52.038;29.256;2023-02-21T06:02:00;12.2;8.8;4.4
74434;PMS7003;62867;52.038;29.256;2023-02-21T06:06:36;17.4;11.8;6.6
74434;PMS7003;62867;52.038;29.256;2023-02-21T06:11:50;21.2;15;8.4
74434;PMS7003;62867;52.038;29.256;2023-02-21T06:16:50;14.8;10;5.2
74434;PMS7003;62867;52.038;29.256;2023-02-21T06:21:22;12.8;8.8;4.6
74434;PMS7003;62867;52.038;29.256;2023-02-21T06:27:02;8.6;7.2;3.8
74434;PMS7003;62867;52.038;29.256;2023-02-21T06:31:32;13.2;8.4;4.4
74434;PMS7003;62867;52.038;29.256;2023-02-21T06:36:38;10.6;8.2;3.8
74434;PMS7003;62867;52.038;29.256;2023-02-21T06:42:00;9.8;6.4;2.8
74434;PMS7003;62867;52.038;29.256;2023-02-21T06:46:34;9;5.4;3.4
74434;PMS7003;62867;52.038;29.256;2023-02-21T06:51:36;10.8;9;4.8
74434;PMS7003;62867;52.038;29.256;2023-02-21T06:56:22;13.2;9.2;5
74434;PMS7003;62867;52.038;29.256;2023-02-21T07:01:38;11.2;9.2;4.2
74434;PMS7003;62867;52.038;29.256;2023-02-21T07:07:04;13;8.8;4.4
74434;PMS7003;62867;52.038;29.256;2023-02-21T07:11:22;13.8;10.2;5.2
74434;PMS7003;62867;52.038;29.256;2023-02-21T07:16:36;12.2;9.2;4.6
74434;PMS7003;62867;52.038;29.256;2023-02-21T07:21:22;13;10.4;5.8
74434;PMS7003;62867;52.038;29.256;2023-02-21T07:26:50;12.2;9.6;4.8
74434;PMS7003;62867;52.038;29.256;2023-02-21T07:32:02;12.6;8.2;4.2
74434;PMS7003;62867;52.038;29.256;2023-02-21T07:36:22;9.6;6.6;4.2
74434;PMS7003;62867;52.038;29.256;2023-02-21T07:41:48;10.8;6.6;3.8
74434;PMS7003;62867;52.038;29.256;2023-02-21T07:46:48;6.6;5.2;2.8
74434;PMS7003;62867;52.038;29.256;2023-02-21T07:51:36;11;8.3;4.3
74434;PMS7003;62867;52.038;29.256;2023-02-21T07:57:04;10.8;7.8;3.8
74434;PMS7003;62867;52.038;29.256;2023-02-21T08:01:24;10.4;6.8;3.4
74434;PMS7003;62867;52.038;29.256;2023-02-21T08:06:36;10.8;8.4;4.2
74434;PMS7003;62867;52.038;29.256;2023-02-21T08:11:22;13.6;9.6;5.2
74434;PMS7003;62867;52.038;29.256;2023-02-21T08:16:48;14.8;9.8;4.8
74434;PMS7003;62867;52.038;29.256;2023-02-21T08:22:04;13.4;9.4;4.6
74434;PMS7003;62867;52.038;29.256;2023-02-21T08:26:24;11.2;8.2;4
74434;PMS7003;62867;52.038;29.256;2023-02-21T08:31:48;14.2;11;5.2
74434;PMS7003;62867;52.038;29.256;2023-02-21T08:36:29;13.4;9.4;5.4
74434;PMS7003;62867;52.038;29.256;2023-02-21T08:41:50;11;6.8;3.6
74434;PMS7003;62867;52.038;29.256;2023-02-21T08:47:06;12;9.2;4.8
74434;PMS7003;62867;52.038;29.256;2023-02-21T08:51:36;11.8;7.8;4.4
74434;PMS7003;62867;52.038;29.256;2023-02-21T08:56:50;12.5;9;4.8
74434;PMS7003;62867;52.038;29.256;2023-02-21T09:01:38;10.6;7.6;3.8
74434;PMS7003;62867;52.038;29.256;2023-02-21T09:06:36;8.8;7.4;4
74434;PMS7003;62867;52.038;29.256;2023-02-21T09:12:06;10.6;7.8;4.2
74434;PMS7003;62867;52.038;29.256;2023-02-21T09:16:22;13.2;9.8;5.6
74434;PMS7003;62867;52.038;29.256;2023-02-21T09:21:48;12;8.2;4.6
74434;PMS7003;62867;52.038;29.256;2023-02-21T09:26:40;15;9.8;5.4
74434;PMS7003;62867;52.038;29.256;2023-02-21T09:31:52;15.8;11.6;7.6
74434;PMS7003;62867;52.038;29.256;2023-02-21T09:37:06;22.2;17.2;10.2
74434;PMS7003;62867;52.038;29.256;2023-02-21T09:41:12;32.8;25;13.6
74434;PMS7003;62867;52.038;29.256;2023-02-21T09:46:51;23;15;7.8
74434;PMS7003;62867;52.038;29.256;2023-02-21T09:51:36;28.6;19;9.2
74434;PMS7003;62867;52.038;29.256;2023-02-21T09:56:50;22.3;16.3;8.8
74434;PMS7003;62867;52.038;29.256;2023-02-21T10:02:10;21.4;15.6;7.4
74434;PMS7003;62867;52.038;29.256;2023-02-21T10:06:16;29.8;22.2;11.8
74434;PMS7003;62867;52.038;29.256;2023-02-21T10:11:40;26;16.2;7.8
74434;PMS7003;62867;52.038;29.256;2023-02-21T10:16:39;34;24.8;13.2
74434;PMS7003;62867;52.038;29.256;2023-02-21T10:21:51;28.2;20.6;11.4
74434;PMS7003;62867;52.038;29.256;2023-02-21T10:27:07;15;12.2;7.2
74434;PMS7003;62867;52.038;29.256;2023-02-21T10:31:23;12.8;9.8;5.2
74434;PMS7003;62867;52.038;29.256;2023-02-21T10:36:13;16;12;7
74434;PMS7003;62867;52.038;29.256;2023-02-21T10:41:12;14.2;11.8;7
74434;PMS7003;62867;52.038;29.256;2023-02-21T10:46:48;12.4;10.6;5.4
74434;PMS7003;62867;52.038;29.256;2023-02-21T10:52:08;13.4;10.4;5.2
74434;PMS7003;62867;52.038;29.256;2023-02-21T10:56:38;21.3;13.3;6.8
74434;PMS7003;62867;52.038;29.256;2023-02-21T11:01:13;12.2;9.8;4.8
74434;PMS7003;62867;52.038;29.256;2023-02-21T11:06:51;12;9.4;5.2
74434;PMS7003;62867;52.038;29.256;2023-02-21T11:12:22;8.4;5.6;3.4
74434;PMS7003;62867;52.038;29.256;2023-02-21T11:16:38;13.6;9.4;5.6
74434;PMS7003;62867;52.038;29.256;2023-02-21T11:21:36;18.2;13.6;7.2
74434;PMS7003;62867;52.038;29.256;2023-02-21T11:26:37;19.4;16;9.6
74434;PMS7003;62867;52.038;29.256;2023-02-21T11:31:50;36;26.2;14.4
74434;PMS7003;62867;52.038;29.256;2023-02-21T11:37:06;20.4;14.8;9.2
74434;PMS7003;62867;52.038;29.256;2023-02-21T11:41:27;16.2;12.2;7.8
74434;PMS7003;62867;52.038;29.256;2023-02-21T11:46:14;20.8;15.2;8.8
74434;PMS7003;62867;52.038;29.256;2023-02-21T11:51:40;10.8;8.2;4.8
74434;PMS7003;62867;52.038;29.256;2023-02-21T11:56:46;7.8;5.5;3.5
74434;PMS7003;62867;52.038;29.256;2023-02-21T12:02:14;9.4;7;4.4
74434;PMS7003;62867;52.038;29.256;2023-02-21T12:06:14;9.2;6;3.8
74434;PMS7003;62867;52.038;29.256;2023-02-21T12:11:41;7.8;5.2;3.4
74434;PMS7003;62867;52.038;29.256;2023-02-21T12:16:39;7.2;5.2;3.4
74434;PMS7003;62867;52.038;29.256;2023-02-21T12:21:20;6.2;5.2;2.6
74434;PMS7003;62867;52.038;29.256;2023-02-21T12:27:10;3.6;2.6;1.2
74434;PMS7003;62867;52.038;29.256;2023-02-21T12:31:42;3.2;2.4;1.6
74434;PMS7003;62867;52.038;29.256;2023-02-21T12:36:14;4.4;2.8;1.8
74434;PMS7003;62867;52.038;29.256;2023-02-21T12:41:30;9;5.4;3.2
74434;PMS7003;62867;52.038;29.256;2023-02-21T12:46:16;5.2;4.6;2.8
74434;PMS7003;62867;52.038;29.256;2023-02-21T12:52:13;2.4;2.4;1
74434;PMS7003;62867;52.038;29.256;2023-02-21T12:56:13;2.5;2.3;1.3
74434;PMS7003;62867;52.038;29.256;2023-02-21T13:01:39;63.2;44.8;24
74434;PMS7003;62867;52.038;29.256;2023-02-21T13:06:27;27.8;20.8;12.8
74434;PMS7003;62867;52.038;29.256;2023-02-21T13:11:55;10.8;7.6;5
74434;PMS7003;62867;52.038;29.256;2023-02-21T13:17:08;5.4;3;1.6
74434;PMS7003;62867;52.038;29.256;2023-02-21T13:21:43;12.8;8.4;5.2
74434;PMS7003;62867;52.038;29.256;2023-02-21T13:26:27;8;6.4;5
74434;PMS7003;62867;52.038;29.256;2023-02-21T13:31:38;13;9.6;5.2
74434;PMS7003;62867;52.038;29.256;2023-02-21T13:36:52;15;11.4;7.4
74434;PMS7003;62867;52.038;29.256;2023-02-21T13:42:07;21.2;18;10.6
74434;PMS7003;62867;52.038;29.256;2023-02-21T13:47:18;16;13.8;8.6
74434;PMS7003;62867;52.038;29.256;2023-02-21T13:51:43;17.2;14;8.6
74434;PMS7003;62867;52.038;29.256;2023-02-21T13:56:39;16;13;7.6
74434;PMS7003;62867;52.038;29.256;2023-02-21T14:01:48;12;9;4.5
74434;PMS7003;62867;52.038;29.256;2023-02-21T14:07:06;14.2;12.4;7.8
74434;PMS7003;62867;52.038;29.256;2023-02-21T14:11:36;18;14.2;10.2
74434;PMS7003;62867;52.038;29.256;2023-02-21T14:16:15;10;7.6;4.4
74434;PMS7003;62867;52.038;29.256;2023-02-21T14:21:38;9;7;4.2
74434;PMS7003;62867;52.038;29.256;2023-02-21T14:26:53;7.8;5.6;3.4
74434;PMS7003;62867;52.038;29.256;2023-02-21T14:32:34;6.4;4.8;3.2
74434;PMS7003;62867;52.038;29.256;2023-02-21T14:36:40;11.2;8.8;5
74434;PMS7003;62867;52.038;29.256;2023-02-21T14:41:27;8.6;7.6;4
74434;PMS7003;62867;52.038;29.256;2023-02-21T14:46:44;7.6;5.6;3.6
74434;PMS7003;62867;52.038;29.256;2023-02-21T14:57:19;4;3.6;1.8
74434;PMS7003;62867;52.038;29.256;2023-02-21T15:01:30;83;63.3;35.8
74434;PMS7003;62867;52.038;29.256;2023-02-21T15:06:36;45.4;34.6;21.4
74434;PMS7003;62867;52.038;29.256;2023-02-21T15:11:37;25.2;19.8;13
74434;PMS7003;62867;52.038;29.256;2023-02-21T15:16:50;30.4;26;17.4
74434;PMS7003;62867;52.038;29.256;2023-02-21T15:22:13;13.4;11;6.6
74434;PMS7003;62867;52.038;29.256;2023-02-21T15:26:50;20.8;17.6;12.4
74434;PMS7003;62867;52.038;29.256;2023-02-21T15:31:26;16.4;11.6;7.4
74434;PMS7003;62867;52.038;29.256;2023-02-21T15:36:38;11.6;9.6;5.4
74434;PMS7003;62867;52.038;29.256;2023-02-21T15:41:50;15.6;12;6.8
74434;PMS7003;62867;52.038;29.256;2023-02-21T15:47:07;12.4;9.6;5.6
74434;PMS7003;62867;52.038;29.256;2023-02-21T15:51:58;10.2;7.6;3.8
74434;PMS7003;62867;52.038;29.256;2023-02-21T15:56:15;6.2;5.2;2.8
74434;PMS7003;62867;52.038;29.256;2023-02-21T16:01:36;8;5;2.8
74434;PMS7003;62867;52.038;29.256;2023-02-21T16:07:07;17.6;12.8;7.4
74434;PMS7003;62867;52.038;29.256;2023-02-21T16:12:17;15.4;10.6;6.6
74434;PMS7003;62867;52.038;29.256;2023-02-21T16:16:38;11;8.2;4.8
74434;PMS7003;62867;52.038;29.256;2023-02-21T16:21:25;7.6;5.4;3
74434;PMS7003;62867;52.038;29.256;2023-02-21T16:26:38;12.2;9.8;5.8
74434;PMS7003;62867;52.038;29.256;2023-02-21T16:31:48;11.2;9.4;5.2
74434;PMS7003;62867;52.038;29.256;2023-02-21T16:37:08;7.2;5.2;3.2
74434;PMS7003;62867;52.038;29.256;2023-02-21T16:41:38;7.2;4.8;2.6
74434;PMS7003;62867;52.038;29.256;2023-02-21T16:46:25;6.6;4;2.6
74434;PMS7003;62867;52.038;29.256;2023-02-21T16:51:26;4.4;3.2;1.8
74434;PMS7003;62867;52.038;29.256;2023-02-21T16:56:49;5.8;3.6;2.4
74434;PMS7003;62867;52.038;29.256;2023-02-21T17:02:04;5.3;3.8;2
74434;PMS7003;62867;52.038;29.256;2023-02-21T17:07:04;4.6;3;2
74434;PMS7003;62867;52.038;29.256;2023-02-21T17:11:12;5.6;4.4;2.4
74434;PMS7003;62867;52.038;29.256;2023-02-21T17:16:12;6.6;4.6;2.4
74434;PMS7003;62867;52.038;29.256;2023-02-21T17:21:50;5.8;5;2.4
74434;PMS7003;62867;52.038;29.256;2023-02-21T17:27:04;8;6;3.2
74434;PMS7003;62867;52.038;29.256;2023-02-21T17:32:06;11;7.8;4.2
74434;PMS7003;62867;52.038;29.256;2023-02-21T17:36:14;9;7.4;4.8
74434;PMS7003;62867;52.038;29.256;2023-02-21T17:41:12;8.6;7.6;4
74434;PMS7003;62867;52.038;29.256;2023-02-21T17:46:52;8;7.2;4.4
74434;PMS7003;62867;52.038;29.256;2023-02-21T17:52:06;8.8;6.6;4
74434;PMS7003;62867;52.038;29.256;2023-02-21T17:56:51;8.4;7.4;5.2
74434;PMS7003;62867;52.038;29.256;2023-02-21T18:01:22;9;7.3;5
74434;PMS7003;62867;52.038;29.256;2023-02-21T18:06:22;9.6;8.8;5.2
74434;PMS7003;62867;52.038;29.256;2023-02-21T18:11:51;10.8;8.6;5.4
74434;PMS7003;62867;52.038;29.256;2023-02-21T18:17:06;11.8;9.6;5.2
74434;PMS7003;62867;52.038;29.256;2023-02-21T18:22:06;10;7.8;4.8
74434;PMS7003;62867;52.038;29.256;2023-02-21T18:26:37;11.2;8;4.8
74434;PMS7003;62867;52.038;29.256;2023-02-21T18:31:40;11.4;9.2;6.2
74434;PMS7003;62867;52.038;29.256;2023-02-21T18:36:24;10.8;8.8;6
74434;PMS7003;62867;52.038;29.256;2023-02-21T18:42:06;10.2;8.4;5.2
74434;PMS7003;62867;52.038;29.256;2023-02-21T18:46:34;13;11.2;6.4
74434;PMS7003;62867;52.038;29.256;2023-02-21T18:51:38;15.6;11.8;7.2
74434;PMS7003;62867;52.038;29.256;2023-02-21T18:56:41;17.8;13.4;7.8
74434;PMS7003;62867;52.038;29.256;2023-02-21T19:01:51;18.2;15.4;9
74434;PMS7003;62867;52.038;29.256;2023-02-21T19:07:05;28.3;23.8;13.3
74434;PMS7003;62867;52.038;29.256;2023-02-21T19:11:30;24.4;18.2;11
74434;PMS7003;62867;52.038;29.256;2023-02-21T19:16:53;38;27;15.4
74434;PMS7003;62867;52.038;29.256;2023-02-21T19:21:54;26.2;20.2;11.6
74434;PMS7003;62867;52.038;29.256;2023-02-21T19:26:40;26.4;22.4;11.8
74434;PMS7003;62867;52.038;29.256;2023-02-21T19:31:46;23;18.4;11
74434;PMS7003;62867;52.038;29.256;2023-02-21T19:37:06;22;17.6;10.6
74434;PMS7003;62867;52.038;29.256;2023-02-21T19:41:38;19.2;15;9
74434;PMS7003;62867;52.038;29.256;2023-02-21T19:46:38;22;17.2;10.2
74434;PMS7003;62867;52.038;29.256;2023-02-21T19:51:24;23.6;18.8;11
74434;PMS7003;62867;52.038;29.256;2023-02-21T19:56:48;22.6;18.6;11.2
74434;PMS7003;62867;52.038;29.256;2023-02-21T20:02:04;20.6;17.8;10.2
74434;PMS7003;62867;52.038;29.256;2023-02-21T20:06:12;22.5;15.3;9.8
74434;PMS7003;62867;52.038;29.256;2023-02-21T20:11:38;22;15.6;9.2
74434;PMS7003;62867;52.038;29.256;2023-02-21T20:16:26;23.4;19.2;10.8
74434;PMS7003;62867;52.038;29.256;2023-02-21T20:21:48;26.8;20.2;11.2
74434;PMS7003;62867;52.038;29.256;2023-02-21T20:26:52;23.8;18.6;10.4
74434;PMS7003;62867;52.038;29.256;2023-02-21T20:31:25;27.6;19.8;11.6
74434;PMS7003;62867;52.038;29.256;2023-02-21T20:36:12;24.8;18.6;11.6
74434;PMS7003;62867;52.038;29.256;2023-02-21T20:41:38;24.4;19.2;11.2
74434;PMS7003;62867;52.038;29.256;2023-02-21T20:46:12;21;16;9.6
74434;PMS7003;62867;52.038;29.256;2023-02-21T20:52:08;18.8;16;8.6
74434;PMS7003;62867;52.038;29.256;2023-02-21T20:56:26;21;15.6;8.6
74434;PMS7003;62867;52.038;29.256;2023-02-21T21:01:40;16.8;12.8;7.8
74434;PMS7003;62867;52.038;29.256;2023-02-21T21:06:12;22.8;17.8;11
74434;PMS7003;62867;52.038;29.256;2023-02-21T21:11:50;23;16.2;8.6
74434;PMS7003;62867;52.038;29.256;2023-02-21T21:16:52;19;12.8;7.2
74434;PMS7003;62867;52.038;29.256;2023-02-21T21:21:28;17.4;13.4;7.2
74434;PMS7003;62867;52.038;29.256;2023-02-21T21:26:52;17;12.6;6.6
74434;PMS7003;62867;52.038;29.256;2023-02-21T21:31:12;16.6;12.2;7
74434;PMS7003;62867;52.038;29.256;2023-02-21T21:36:48;18;14.6;8
74434;PMS7003;62867;52.038;29.256;2023-02-21T21:42:10;15;12;7.4
74434;PMS7003;62867;52.038;29.256;2023-02-21T21:46:43;14.6;11.2;6
74434;PMS7003;62867;52.038;29.256;2023-02-21T21:51:28;17;10.8;6.6
74434;PMS7003;62867;52.038;29.256;2023-02-21T21:56:38;17;10.8;6.8
74434;PMS7003;62867;52.038;29.256;2023-02-21T22:02:06;15.4;11.4;6.8
74434;PMS7003;62867;52.038;29.256;2023-02-21T22:07:06;15.3;12.5;6.8
74434;PMS7003;62867;52.038;29.256;2023-02-21T22:11:26;16.4;11;6.8
74434;PMS7003;62867;52.038;29.256;2023-02-21T22:16:39;17;12;6.4
74434;PMS7003;62867;52.038;29.256;2023-02-21T22:21:36;13;11.8;6.2
74434;PMS7003;62867;52.038;29.256;2023-02-21T22:26:50;16.2;12.8;7.4
74434;PMS7003;62867;52.038;29.256;2023-02-21T22:32:06;17.2;11.4;6.6
74434;PMS7003;62867;52.038;29.256;2023-02-21T22:36:22;16;11.4;6.6
74434;PMS7003;62867;52.038;29.256;2023-02-21T22:41:40;15.6;12.4;6.8
74434;PMS7003;62867;52.038;29.256;2023-02-21T22:46:23;15.8;12.4;7
74434;PMS7003;62867;52.038;29.256;2023-02-21T22:51:38;16.8;12.2;6.8
74434;PMS7003;62867;52.038;29.256;2023-02-21T22:57:04;19.4;14.2;7.4
74434;PMS7003;62867;52.038;29.256;2023-02-21T23:01:28;16.2;13.4;7.2
74434;PMS7003;62867;52.038;29.256;2023-02-21T23:06:38;16.8;13.3;7.3
74434;PMS7003;62867;52.038;29.256;2023-02-21T23:11:16;17;12.4;7
74434;PMS7003;62867;52.038;29.256;2023-02-21T23:16:55;14.8;12;7.2
74434;PMS7003;62867;52.038;29.256;2023-02-21T23:22:06;16;13.6;7.2
74434;PMS7003;62867;52.038;29.256;2023-02-21T23:26:38;17.2;13.2;7.8
74434;PMS7003;62867;52.038;29.256;2023-02-21T23:31:12;17;12.2;6.4
74434;PMS7003;62867;52.038;29.256;2023-02-21T23:36:28;19.2;15.8;8.2
74434;PMS7003;62867;52.038;29.256;2023-02-21T23:41:36;19;14.6;7.2
74434;PMS7003;62867;52.038;29.256;2023-02-21T23:47:06;19;14;6.8
74434;PMS7003;62867;52.038;29.256;2023-02-21T23:51:50;18.4;13;7
74434;PMS7003;62867;52.038;29.256;2023-02-21T23:56:38;18;12.6;6.6
